sensor_id;sensor_type;location;lat;lon;timestamp;pressure;altitude;pressure_sealevel;temperature;humidity
20889;BME280;10604;51.976;7.594;2023-06-14T00:00:21;100680.69;;;23.65;35.75
20889;BME280;10604;51.976;7.594;2023-06-14T00:02:46;100685.38;;;23.52;36.01
20889;BME280;10604;51.976;7.594;2023-06-14T00:05:11;100685.38;;;23.52;36.02
20889;BME280;10604;51.976;7.594;2023-06-14T00:07:40;100690.84;;;23.62;35.65
20889;BME280;10604;51.976;7.594;2023-06-14T00:10:09;100693.13;;;23.66;36.04
20889;BME280;10604;51.976;7.594;2023-06-14T00:12:35;100689.53;;;23.45;36.74
20889;BME280;10604;51.976;7.594;2023-06-14T00:15:01;100698.66;;;23.33;36.33
20889;BME280;10604;51.976;7.594;2023-06-14T00:17:26;100696.50;;;23.27;36.21
20889;BME280;10604;51.976;7.594;2023-06-14T00:19:55;100699.19;;;23.27;36.57
20889;BME280;10604;51.976;7.594;2023-06-14T00:22:21;100696.78;;;23.13;36.81
20889;BME280;10604;51.976;7.594;2023-06-14T00:24:49;100707.84;;;23.30;36.44
20889;BME280;10604;51.976;7.594;2023-06-14T00:27:15;100704.25;;;23.09;36.39
20889;BME280;10604;51.976;7.594;2023-06-14T00:29:40;100707.69;;;23.11;36.56
20889;BME280;10604;51.976;7.594;2023-06-14T00:32:06;100709.19;;;22.93;36.89
20889;BME280;10604;51.976;7.594;2023-06-14T00:34:31;100711.69;;;23.17;36.48
20889;BME280;10604;51.976;7.594;2023-06-14T00:36:56;100710.25;;;23.13;36.87
20889;BME280;10604;51.976;7.594;2023-06-14T00:39:22;100710.25;;;23.13;36.58
20889;BME280;10604;51.976;7.594;2023-06-14T00:41:47;100707.31;;;23.04;37.02
20889;BME280;10604;51.976;7.594;2023-06-14T00:44:12;100720.34;;;22.66;37.30
20889;BME280;10604;51.976;7.594;2023-06-14T00:46:41;100717.66;;;22.66;37.84
20889;BME280;10604;51.976;7.594;2023-06-14T00:49:06;100718.50;;;22.89;37.39
20889;BME280;10604;51.976;7.594;2023-06-14T00:51:31;100720.06;;;23.02;37.32
20889;BME280;10604;51.976;7.594;2023-06-14T00:53:57;100720.59;;;22.85;37.39
20889;BME280;10604;51.976;7.594;2023-06-14T00:56:22;100723.63;;;22.92;37.52
20889;BME280;10604;51.976;7.594;2023-06-14T00:58:48;100719.63;;;22.86;37.77
20889;BME280;10604;51.976;7.594;2023-06-14T01:01:13;100718.63;;;22.76;37.30
20889;BME280;10604;51.976;7.594;2023-06-14T01:03:39;100714.59;;;22.82;37.66
20889;BME280;10604;51.976;7.594;2023-06-14T01:08:50;100729.88;;;22.70;37.83
20889;BME280;10604;51.976;7.594;2023-06-14T01:11:28;100731.22;;;22.64;37.94
20889;BME280;10604;51.976;7.594;2023-06-14T01:13:55;100736.50;;;22.66;37.83
20889;BME280;10604;51.976;7.594;2023-06-14T01:16:21;100733.81;;;22.44;38.25
20889;BME280;10604;51.976;7.594;2023-06-14T01:18:46;100736.25;;;22.58;38.34
20889;BME280;10604;51.976;7.594;2023-06-14T01:21:20;100741.72;;;22.45;38.45
20889;BME280;10604;51.976;7.594;2023-06-14T01:23:45;100737.19;;;22.46;38.39
20889;BME280;10604;51.976;7.594;2023-06-14T01:26:10;100736.25;;;22.36;38.53
20889;BME280;10604;51.976;7.594;2023-06-14T01:28:37;100736.97;;;22.49;38.68
20889;BME280;10604;51.976;7.594;2023-06-14T01:31:02;100741.34;;;22.39;38.55
20889;BME280;10604;51.976;7.594;2023-06-14T01:33:29;100742.09;;;22.30;38.50
20889;BME280;10604;51.976;7.594;2023-06-14T01:35:56;100738.91;;;22.24;39.33
20889;BME280;10604;51.976;7.594;2023-06-14T01:38:25;100746.28;;;22.45;38.50
20889;BME280;10604;51.976;7.594;2023-06-14T01:40:50;100741.84;;;22.33;38.77
20889;BME280;10604;51.976;7.594;2023-06-14T01:43:17;100740.38;;;22.40;38.87
20889;BME280;10604;51.976;7.594;2023-06-14T01:45:44;100743.81;;;22.31;38.87
20889;BME280;10604;51.976;7.594;2023-06-14T01:48:10;100743.81;;;22.31;38.98
20889;BME280;10604;51.976;7.594;2023-06-14T01:50:36;100742.34;;;22.26;39.22
20889;BME280;10604;51.976;7.594;2023-06-14T01:53:01;100749.53;;;22.26;39.09
20889;BME280;10604;51.976;7.594;2023-06-14T01:55:26;100745.94;;;22.03;39.42
20889;BME280;10604;51.976;7.594;2023-06-14T01:57:52;100741.22;;;22.07;39.60
20889;BME280;10604;51.976;7.594;2023-06-14T02:00:17;100749.88;;;21.99;40.00
20889;BME280;10604;51.976;7.594;2023-06-14T02:02:43;100745.09;;;22.03;39.73
20889;BME280;10604;51.976;7.594;2023-06-14T02:05:08;100743.00;;;21.95;39.94
20889;BME280;10604;51.976;7.594;2023-06-14T02:07:34;100739.78;;;21.90;39.94
20889;BME280;10604;51.976;7.594;2023-06-14T02:09:59;100738.16;;;22.00;39.77
20889;BME280;10604;51.976;7.594;2023-06-14T02:12:24;100737.00;;;21.92;39.72
20889;BME280;10604;51.976;7.594;2023-06-14T02:14:49;100741.50;;;21.91;39.88
20889;BME280;10604;51.976;7.594;2023-06-14T02:17:15;100739.56;;;21.93;39.95
20889;BME280;10604;51.976;7.594;2023-06-14T02:19:41;100737.84;;;21.92;39.91
20889;BME280;10604;51.976;7.594;2023-06-14T02:22:07;100740.44;;;21.59;40.40
20889;BME280;10604;51.976;7.594;2023-06-14T02:24:32;100745.84;;;21.70;40.21
20889;BME280;10604;51.976;7.594;2023-06-14T02:26:57;100741.69;;;21.66;40.50
20889;BME280;10604;51.976;7.594;2023-06-14T02:29:23;100740.44;;;21.59;40.90
20889;BME280;10604;51.976;7.594;2023-06-14T02:31:48;100741.22;;;21.48;40.59
20889;BME280;10604;51.976;7.594;2023-06-14T02:34:14;100758.03;;;21.63;40.69
20889;BME280;10604;51.976;7.594;2023-06-14T02:36:41;100746.03;;;21.56;40.82
20889;BME280;10604;51.976;7.594;2023-06-14T02:39:07;100748.78;;;21.67;40.79
20889;BME280;10604;51.976;7.594;2023-06-14T02:41:34;100756.78;;;21.56;41.20
20889;BME280;10604;51.976;7.594;2023-06-14T02:43:59;100755.13;;;21.66;40.59
20889;BME280;10604;51.976;7.594;2023-06-14T02:46:25;100754.66;;;21.72;40.67
20889;BME280;10604;51.976;7.594;2023-06-14T02:48:50;100764.06;;;21.54;40.91
20889;BME280;10604;51.976;7.594;2023-06-14T02:51:15;100754.03;;;21.44;41.56
20889;BME280;10604;51.976;7.594;2023-06-14T02:53:40;100759.63;;;21.41;40.92
20889;BME280;10604;51.976;7.594;2023-06-14T02:56:05;100758.84;;;21.52;40.74
20889;BME280;10604;51.976;7.594;2023-06-14T02:58:31;100753.72;;;21.60;40.54
20889;BME280;10604;51.976;7.594;2023-06-14T03:00:56;100771.16;;;21.55;41.20
20889;BME280;10604;51.976;7.594;2023-06-14T03:03:21;100771.63;;;21.48;40.99
20889;BME280;10604;51.976;7.594;2023-06-14T03:05:49;100776.66;;;21.29;41.10
20889;BME280;10604;51.976;7.594;2023-06-14T03:08:16;100780.66;;;21.47;41.05
20889;BME280;10604;51.976;7.594;2023-06-14T03:10:44;100781.56;;;21.35;41.31
20889;BME280;10604;51.976;7.594;2023-06-14T03:13:09;100779.00;;;21.34;41.09
20889;BME280;10604;51.976;7.594;2023-06-14T03:15:36;100780.50;;;21.38;41.26
20889;BME280;10604;51.976;7.594;2023-06-14T03:18:01;100790.53;;;21.23;41.63
20889;BME280;10604;51.976;7.594;2023-06-14T03:20:26;100787.00;;;21.23;41.59
20889;BME280;10604;51.976;7.594;2023-06-14T03:22:54;100795.91;;;21.23;41.74
20889;BME280;10604;51.976;7.594;2023-06-14T03:25:19;100799.59;;;21.33;41.75
20889;BME280;10604;51.976;7.594;2023-06-14T03:27:45;100801.97;;;21.25;41.54
20889;BME280;10604;51.976;7.594;2023-06-14T03:30:11;100802.28;;;21.33;41.55
20889;BME280;10604;51.976;7.594;2023-06-14T03:32:36;100803.53;;;21.40;41.33
20889;BME280;10604;51.976;7.594;2023-06-14T03:35:01;100808.91;;;21.40;41.57
20889;BME280;10604;51.976;7.594;2023-06-14T03:37:27;100808.69;;;21.43;41.31
20889;BME280;10604;51.976;7.594;2023-06-14T03:39:52;100809.66;;;21.42;41.92
20889;BME280;10604;51.976;7.594;2023-06-14T03:42:17;100804.75;;;21.36;41.46
20889;BME280;10604;51.976;7.594;2023-06-14T03:44:43;100816.34;;;21.37;41.60
20889;BME280;10604;51.976;7.594;2023-06-14T03:47:08;100821.00;;;21.22;41.74
20889;BME280;10604;51.976;7.594;2023-06-14T03:49:34;100825.78;;;21.42;41.65
20889;BME280;10604;51.976;7.594;2023-06-14T03:51:59;100824.25;;;21.51;41.57
20889;BME280;10604;51.976;7.594;2023-06-14T03:54:25;100827.50;;;21.43;41.76
20889;BME280;10604;51.976;7.594;2023-06-14T03:56:51;100823.44;;;21.25;41.98
20889;BME280;10604;51.976;7.594;2023-06-14T03:59:16;100830.19;;;21.43;42.05
20889;BME280;10604;51.976;7.594;2023-06-14T04:01:41;100831.22;;;21.17;42.30
20889;BME280;10604;51.976;7.594;2023-06-14T04:04:09;100839.16;;;21.06;42.76
20889;BME280;10604;51.976;7.594;2023-06-14T04:06:35;100843.03;;;21.02;42.11
20889;BME280;10604;51.976;7.594;2023-06-14T04:09:00;100849.41;;;21.37;42.40
20889;BME280;10604;51.976;7.594;2023-06-14T04:11:29;100847.50;;;21.14;43.18
20889;BME280;10604;51.976;7.594;2023-06-14T04:13:54;100849.88;;;21.19;43.32
20889;BME280;10604;51.976;7.594;2023-06-14T04:16:21;100847.34;;;21.17;42.71
20889;BME280;10604;51.976;7.594;2023-06-14T04:18:46;100868.00;;;21.15;43.00
20889;BME280;10604;51.976;7.594;2023-06-14T04:21:13;100855.41;;;21.41;42.55
20889;BME280;10604;51.976;7.594;2023-06-14T04:23:38;100860.16;;;21.37;42.70
20889;BME280;10604;51.976;7.594;2023-06-14T04:26:03;100867.25;;;21.38;42.89
20889;BME280;10604;51.976;7.594;2023-06-14T04:28:29;100871.19;;;21.45;42.84
20889;BME280;10604;51.976;7.594;2023-06-14T04:30:55;100867.66;;;21.69;42.66
20889;BME280;10604;51.976;7.594;2023-06-14T04:33:20;100871.38;;;21.79;42.03
20889;BME280;10604;51.976;7.594;2023-06-14T04:35:45;100869.94;;;21.62;42.67
20889;BME280;10604;51.976;7.594;2023-06-14T04:38:12;100869.00;;;21.74;42.58
20889;BME280;10604;51.976;7.594;2023-06-14T04:40:38;100865.06;;;21.91;42.17
20889;BME280;10604;51.976;7.594;2023-06-14T04:43:10;100864.41;;;22.00;41.36
20889;BME280;10604;51.976;7.594;2023-06-14T04:45:42;100881.09;;;22.16;41.81
20889;BME280;10604;51.976;7.594;2023-06-14T04:48:10;100881.94;;;22.17;41.58
20889;BME280;10604;51.976;7.594;2023-06-14T04:50:35;100877.00;;;22.35;41.58
20889;BME280;10604;51.976;7.594;2023-06-14T04:53:00;100879.97;;;22.54;41.05
20889;BME280;10604;51.976;7.594;2023-06-14T04:55:26;100875.31;;;22.45;41.65
20889;BME280;10604;51.976;7.594;2023-06-14T04:57:51;100871.19;;;22.63;41.44
20889;BME280;10604;51.976;7.594;2023-06-14T05:00:18;100873.13;;;22.61;41.29
20889;BME280;10604;51.976;7.594;2023-06-14T05:02:43;100874.69;;;22.98;40.67
20889;BME280;10604;51.976;7.594;2023-06-14T05:05:09;100883.00;;;22.84;40.19
20889;BME280;10604;51.976;7.594;2023-06-14T05:07:34;100888.38;;;23.07;40.11
20889;BME280;10604;51.976;7.594;2023-06-14T05:09:59;100883.00;;;23.07;40.42
20889;BME280;10604;51.976;7.594;2023-06-14T05:12:25;100888.88;;;23.23;40.11
20889;BME280;10604;51.976;7.594;2023-06-14T05:14:50;100894.00;;;23.48;40.80
20889;BME280;10604;51.976;7.594;2023-06-14T05:17:15;100894.22;;;23.45;40.00
20889;BME280;10604;51.976;7.594;2023-06-14T05:19:42;100900.59;;;23.55;40.17
20889;BME280;10604;51.976;7.594;2023-06-14T05:22:07;100892.50;;;23.66;39.37
20889;BME280;10604;51.976;7.594;2023-06-14T05:24:32;100889.84;;;23.55;39.66
20889;BME280;10604;51.976;7.594;2023-06-14T05:26:57;100897.69;;;23.58;40.08
20889;BME280;10604;51.976;7.594;2023-06-14T05:29:23;100892.72;;;23.74;40.05
20889;BME280;10604;51.976;7.594;2023-06-14T05:31:48;100887.47;;;23.73;39.61
20889;BME280;10604;51.976;7.594;2023-06-14T05:34:13;100892.00;;;23.72;39.49
20889;BME280;10604;51.976;7.594;2023-06-14T05:36:38;100897.81;;;23.89;39.36
20889;BME280;10604;51.976;7.594;2023-06-14T05:39:04;100905.34;;;23.74;39.22
20889;BME280;10604;51.976;7.594;2023-06-14T05:41:30;100903.72;;;23.83;39.22
20889;BME280;10604;51.976;7.594;2023-06-14T05:43:56;100893.13;;;24.02;38.86
20889;BME280;10604;51.976;7.594;2023-06-14T05:46:21;100904.00;;;24.23;38.48
20889;BME280;10604;51.976;7.594;2023-06-14T05:48:53;100912.16;;;24.32;38.14
20889;BME280;10604;51.976;7.594;2023-06-14T05:51:19;100908.00;;;23.85;38.72
20889;BME280;10604;51.976;7.594;2023-06-14T05:53:45;100913.94;;;24.43;38.24
20889;BME280;10604;51.976;7.594;2023-06-14T05:56:11;100909.59;;;24.72;38.16
20889;BME280;10604;51.976;7.594;2023-06-14T05:58:36;100910.63;;;24.60;37.40
20889;BME280;10604;51.976;7.594;2023-06-14T06:01:01;100915.47;;;24.98;37.82
20889;BME280;10604;51.976;7.594;2023-06-14T06:03:27;100902.75;;;25.19;37.68
20889;BME280;10604;51.976;7.594;2023-06-14T06:05:54;100908.22;;;25.39;37.11
20889;BME280;10604;51.976;7.594;2023-06-14T06:08:19;100909.03;;;25.29;37.01
20889;BME280;10604;51.976;7.594;2023-06-14T06:10:45;100911.66;;;25.41;37.10
20889;BME280;10604;51.976;7.594;2023-06-14T06:13:11;100913.38;;;25.42;37.20
20889;BME280;10604;51.976;7.594;2023-06-14T06:15:36;100911.53;;;25.42;36.69
20889;BME280;10604;51.976;7.594;2023-06-14T06:18:01;100908.38;;;25.77;36.25
20889;BME280;10604;51.976;7.594;2023-06-14T06:20:26;100911.03;;;25.27;37.34
20889;BME280;10604;51.976;7.594;2023-06-14T06:22:53;100913.28;;;25.22;36.36
20889;BME280;10604;51.976;7.594;2023-06-14T06:25:18;100903.94;;;25.26;37.20
20889;BME280;10604;51.976;7.594;2023-06-14T06:27:44;100903.19;;;25.15;36.26
20889;BME280;10604;51.976;7.594;2023-06-14T06:30:09;100896.41;;;25.70;35.78
20889;BME280;10604;51.976;7.594;2023-06-14T06:32:35;100903.28;;;25.93;35.46
20889;BME280;10604;51.976;7.594;2023-06-14T06:35:00;100904.34;;;25.62;35.73
20889;BME280;10604;51.976;7.594;2023-06-14T06:37:26;100911.47;;;25.63;35.68
20889;BME280;10604;51.976;7.594;2023-06-14T06:39:51;100920.09;;;26.06;35.28
20889;BME280;10604;51.976;7.594;2023-06-14T06:42:16;100922.63;;;25.98;35.32
20889;BME280;10604;51.976;7.594;2023-06-14T06:44:42;100924.34;;;25.99;35.04
20889;BME280;10604;51.976;7.594;2023-06-14T06:47:07;100928.34;;;26.15;34.89
20889;BME280;10604;51.976;7.594;2023-06-14T06:49:32;100933.06;;;26.32;35.79
20889;BME280;10604;51.976;7.594;2023-06-14T06:54:27;100936.91;;;26.39;34.59
20889;BME280;10604;51.976;7.594;2023-06-14T06:56:52;100937.13;;;25.78;34.66
20889;BME280;10604;51.976;7.594;2023-06-14T06:59:17;100938.81;;;25.79;34.28
20889;BME280;10604;51.976;7.594;2023-06-14T07:01:42;100938.09;;;25.87;35.22
20889;BME280;10604;51.976;7.594;2023-06-14T07:04:08;100930.34;;;26.12;34.53
20889;BME280;10604;51.976;7.594;2023-06-14T07:06:33;100932.31;;;26.78;33.53
20889;BME280;10604;51.976;7.594;2023-06-14T07:08:58;100934.31;;;26.76;32.29
20889;BME280;10604;51.976;7.594;2023-06-14T07:11:26;100940.72;;;26.84;32.49
20889;BME280;10604;51.976;7.594;2023-06-14T07:13:51;100950.59;;;26.47;31.79
20889;BME280;10604;51.976;7.594;2023-06-14T07:16:17;100945.47;;;26.25;32.73
20889;BME280;10604;51.976;7.594;2023-06-14T07:18:42;100948.03;;;26.36;32.65
20889;BME280;10604;51.976;7.594;2023-06-14T07:21:07;100950.25;;;26.88;31.31
20889;BME280;10604;51.976;7.594;2023-06-14T07:23:33;100947.72;;;26.77;31.50
20889;BME280;10604;51.976;7.594;2023-06-14T07:25:58;100953.28;;;26.66;31.43
20889;BME280;10604;51.976;7.594;2023-06-14T07:28:23;100936.28;;;27.03;30.77
20889;BME280;10604;51.976;7.594;2023-06-14T07:30:48;100937.44;;;27.64;31.02
20889;BME280;10604;51.976;7.594;2023-06-14T07:33:14;100941.69;;;28.39;30.32
20889;BME280;10604;51.976;7.594;2023-06-14T07:35:39;100944.34;;;28.04;30.33
20889;BME280;10604;51.976;7.594;2023-06-14T07:38:05;100947.00;;;28.49;30.65
20889;BME280;10604;51.976;7.594;2023-06-14T07:40:30;100944.78;;;28.44;30.21
20889;BME280;10604;51.976;7.594;2023-06-14T07:42:55;100945.91;;;28.60;30.02
20889;BME280;10604;51.976;7.594;2023-06-14T07:45:21;100941.81;;;28.99;29.82
20889;BME280;10604;51.976;7.594;2023-06-14T07:47:46;100932.13;;;28.35;29.63
20889;BME280;10604;51.976;7.594;2023-06-14T07:50:11;100931.16;;;28.19;30.37
20889;BME280;10604;51.976;7.594;2023-06-14T07:52:37;100934.91;;;28.43;30.16
20889;BME280;10604;51.976;7.594;2023-06-14T07:55:03;100946.25;;;28.21;29.88
20889;BME280;10604;51.976;7.594;2023-06-14T07:57:28;100934.19;;;28.59;30.01
20889;BME280;10604;51.976;7.594;2023-06-14T07:59:54;100945.28;;;28.66;29.68
20889;BME280;10604;51.976;7.594;2023-06-14T08:02:19;100949.97;;;28.56;30.24
20889;BME280;10604;51.976;7.594;2023-06-14T08:04:44;100948.97;;;29.00;29.07
20889;BME280;10604;51.976;7.594;2023-06-14T08:07:10;100950.97;;;29.24;28.71
20889;BME280;10604;51.976;7.594;2023-06-14T08:09:35;100941.19;;;29.73;28.30
20889;BME280;10604;51.976;7.594;2023-06-14T08:12:03;100944.03;;;30.06;27.87
20889;BME280;10604;51.976;7.594;2023-06-14T08:14:29;100951.22;;;29.73;28.13
20889;BME280;10604;51.976;7.594;2023-06-14T08:16:55;100946.84;;;29.88;28.29
20889;BME280;10604;51.976;7.594;2023-06-14T08:19:20;100945.06;;;29.54;28.05
20889;BME280;10604;51.976;7.594;2023-06-14T08:21:45;100943.25;;;29.79;28.69
20889;BME280;10604;51.976;7.594;2023-06-14T08:24:11;100947.88;;;30.53;27.39
20889;BME280;10604;51.976;7.594;2023-06-14T08:26:37;100944.75;;;30.24;27.47
20889;BME280;10604;51.976;7.594;2023-06-14T08:29:03;100941.88;;;29.67;27.94
20889;BME280;10604;51.976;7.594;2023-06-14T08:31:28;100944.22;;;29.62;27.97
20889;BME280;10604;51.976;7.594;2023-06-14T08:33:53;100957.19;;;30.26;28.06
20889;BME280;10604;51.976;7.594;2023-06-14T08:36:19;100948.47;;;30.07;27.12
20889;BME280;10604;51.976;7.594;2023-06-14T08:38:44;100952.91;;;29.32;27.46
20889;BME280;10604;51.976;7.594;2023-06-14T08:41:10;100953.53;;;29.51;27.94
20889;BME280;10604;51.976;7.594;2023-06-14T08:43:36;100957.09;;;29.52;27.16
20889;BME280;10604;51.976;7.594;2023-06-14T08:46:02;100957.06;;;29.86;26.94
20889;BME280;10604;51.976;7.594;2023-06-14T08:48:28;100954.28;;;29.70;26.78
20889;BME280;10604;51.976;7.594;2023-06-14T08:50:55;100960.41;;;30.30;27.17
20889;BME280;10604;51.976;7.594;2023-06-14T08:53:26;100952.19;;;30.06;26.98
20889;BME280;10604;51.976;7.594;2023-06-14T08:55:53;100938.19;;;29.42;26.92
20889;BME280;10604;51.976;7.594;2023-06-14T08:58:20;100955.66;;;30.40;26.70
20889;BME280;10604;51.976;7.594;2023-06-14T09:00:49;100945.13;;;30.86;25.61
20889;BME280;10604;51.976;7.594;2023-06-14T09:03:15;100942.03;;;31.13;25.79
20889;BME280;10604;51.976;7.594;2023-06-14T09:05:40;100944.25;;;31.01;26.33
20889;BME280;10604;51.976;7.594;2023-06-14T09:08:05;100943.72;;;31.14;25.97
20889;BME280;10604;51.976;7.594;2023-06-14T09:10:31;100946.47;;;30.41;25.82
20889;BME280;10604;51.976;7.594;2023-06-14T09:13:02;100953.25;;;29.71;26.79
20889;BME280;10604;51.976;7.594;2023-06-14T09:15:27;100955.34;;;30.59;26.89
20889;BME280;10604;51.976;7.594;2023-06-14T09:17:53;100955.16;;;31.18;25.75
20889;BME280;10604;51.976;7.594;2023-06-14T09:20:18;100947.59;;;31.28;26.62
20889;BME280;10604;51.976;7.594;2023-06-14T09:22:44;100963.19;;;30.54;26.09
20889;BME280;10604;51.976;7.594;2023-06-14T09:25:09;100963.47;;;30.19;26.59
20889;BME280;10604;51.976;7.594;2023-06-14T09:27:35;100964.09;;;29.96;27.10
20889;BME280;10604;51.976;7.594;2023-06-14T09:30:01;100955.28;;;30.27;27.54
20889;BME280;10604;51.976;7.594;2023-06-14T09:32:26;100967.88;;;30.28;27.28
20889;BME280;10604;51.976;7.594;2023-06-14T09:34:52;100971.88;;;30.82;27.01
20889;BME280;10604;51.976;7.594;2023-06-14T09:37:31;100976.97;;;31.09;26.29
20889;BME280;10604;51.976;7.594;2023-06-14T09:39:56;100973.69;;;31.30;26.09
20889;BME280;10604;51.976;7.594;2023-06-14T09:42:22;100976.22;;;31.87;25.90
20889;BME280;10604;51.976;7.594;2023-06-14T09:44:51;100977.97;;;31.25;25.97
20889;BME280;10604;51.976;7.594;2023-06-14T09:47:16;100967.22;;;32.09;25.85
20889;BME280;10604;51.976;7.594;2023-06-14T09:49:42;100974.91;;;31.83;26.38
20889;BME280;10604;51.976;7.594;2023-06-14T09:52:10;100966.84;;;32.12;25.38
20889;BME280;10604;51.976;7.594;2023-06-14T09:54:39;100971.63;;;32.87;25.30
20889;BME280;10604;51.976;7.594;2023-06-14T09:57:05;100967.34;;;32.47;24.42
20889;BME280;10604;51.976;7.594;2023-06-14T09:59:32;100968.09;;;32.10;25.06
20889;BME280;10604;51.976;7.594;2023-06-14T10:01:57;100977.22;;;32.48;25.18
20889;BME280;10604;51.976;7.594;2023-06-14T10:04:24;100979.09;;;33.30;24.18
20889;BME280;10604;51.976;7.594;2023-06-14T10:06:50;100976.75;;;33.04;24.91
20889;BME280;10604;51.976;7.594;2023-06-14T10:09:15;100977.34;;;32.77;25.62
20889;BME280;10604;51.976;7.594;2023-06-14T10:11:41;100969.34;;;33.57;24.35
20889;BME280;10604;51.976;7.594;2023-06-14T10:14:10;100979.41;;;33.13;24.60
20889;BME280;10604;51.976;7.594;2023-06-14T10:24:01;100965.78;;;33.71;24.35
20889;BME280;10604;51.976;7.594;2023-06-14T10:26:28;100985.47;;;32.62;25.38
20889;BME280;10604;51.976;7.594;2023-06-14T10:29:01;100971.50;;;33.18;24.96
20889;BME280;10604;51.976;7.594;2023-06-14T10:34:06;100962.66;;;33.60;24.75
20889;BME280;10604;51.976;7.594;2023-06-14T10:36:31;100972.00;;;33.65;23.95
20889;BME280;10604;51.976;7.594;2023-06-14T10:38:59;100962.56;;;33.53;25.17
20889;BME280;10604;51.976;7.594;2023-06-14T10:41:28;100970.13;;;33.80;24.27
20889;BME280;10604;51.976;7.594;2023-06-14T10:46:37;100966.91;;;33.33;24.74
20889;BME280;10604;51.976;7.594;2023-06-14T10:49:03;100960.69;;;34.40;23.63
20889;BME280;10604;51.976;7.594;2023-06-14T10:51:41;100958.94;;;35.03;23.33
20889;BME280;10604;51.976;7.594;2023-06-14T10:54:15;100953.94;;;35.13;23.40
20889;BME280;10604;51.976;7.594;2023-06-14T10:56:47;100960.19;;;35.01;23.87
20889;BME280;10604;51.976;7.594;2023-06-14T10:59:13;100950.97;;;35.36;23.37
20889;BME280;10604;51.976;7.594;2023-06-14T11:01:41;100952.28;;;35.88;23.07
20889;BME280;10604;51.976;7.594;2023-06-14T11:04:12;100948.22;;;35.77;22.91
20889;BME280;10604;51.976;7.594;2023-06-14T11:06:59;100957.47;;;36.24;22.71
20889;BME280;10604;51.976;7.594;2023-06-14T11:09:38;100955.50;;;36.04;22.66
20889;BME280;10604;51.976;7.594;2023-06-14T11:12:10;100949.56;;;36.01;22.61
20889;BME280;10604;51.976;7.594;2023-06-14T11:14:37;100959.91;;;34.46;23.71
20889;BME280;10604;51.976;7.594;2023-06-14T11:17:02;100961.50;;;34.19;23.25
20889;BME280;10604;51.976;7.594;2023-06-14T11:19:27;100944.63;;;34.58;22.94
20889;BME280;10604;51.976;7.594;2023-06-14T11:21:54;100952.59;;;34.53;23.26
20889;BME280;10604;51.976;7.594;2023-06-14T11:24:19;100951.59;;;34.61;23.73
20889;BME280;10604;51.976;7.594;2023-06-14T11:26:46;100950.41;;;35.19;22.67
20889;BME280;10604;51.976;7.594;2023-06-14T11:29:11;100945.19;;;35.65;22.08
20889;BME280;10604;51.976;7.594;2023-06-14T11:31:37;100938.44;;;35.68;23.08
20889;BME280;10604;51.976;7.594;2023-06-14T11:34:02;100935.56;;;35.89;21.98
20889;BME280;10604;51.976;7.594;2023-06-14T11:36:29;100933.31;;;35.52;22.60
20889;BME280;10604;51.976;7.594;2023-06-14T11:38:58;100929.84;;;35.37;23.12
20889;BME280;10604;51.976;7.594;2023-06-14T11:41:24;100925.03;;;35.17;23.11
20889;BME280;10604;51.976;7.594;2023-06-14T11:43:52;100936.41;;;35.08;22.90
20889;BME280;10604;51.976;7.594;2023-06-14T11:46:17;100939.72;;;36.20;22.69
20889;BME280;10604;51.976;7.594;2023-06-14T11:48:47;100924.66;;;36.09;21.68
20889;BME280;10604;51.976;7.594;2023-06-14T11:51:12;100932.25;;;36.00;22.04
20889;BME280;10604;51.976;7.594;2023-06-14T11:53:37;100950.91;;;36.18;22.82
20889;BME280;10604;51.976;7.594;2023-06-14T11:56:02;100938.38;;;35.55;22.61
20889;BME280;10604;51.976;7.594;2023-06-14T11:58:28;100938.72;;;36.67;22.31
20889;BME280;10604;51.976;7.594;2023-06-14T12:00:54;100944.84;;;36.75;21.95
20889;BME280;10604;51.976;7.594;2023-06-14T12:03:23;100941.69;;;36.52;21.83
20889;BME280;10604;51.976;7.594;2023-06-14T12:05:50;100943.56;;;36.58;22.18
20889;BME280;10604;51.976;7.594;2023-06-14T12:08:16;100946.34;;;36.78;21.31
20889;BME280;10604;51.976;7.594;2023-06-14T12:10:42;100934.97;;;35.87;20.63
20889;BME280;10604;51.976;7.594;2023-06-14T12:13:10;100939.13;;;36.37;21.50
20889;BME280;10604;51.976;7.594;2023-06-14T12:15:35;100931.91;;;37.02;21.50
20889;BME280;10604;51.976;7.594;2023-06-14T12:18:01;100918.84;;;38.13;19.89
20889;BME280;10604;51.976;7.594;2023-06-14T12:20:29;100929.78;;;37.24;20.98
20889;BME280;10604;51.976;7.594;2023-06-14T12:22:56;100933.22;;;35.39;22.30
20889;BME280;10604;51.976;7.594;2023-06-14T12:25:26;100930.28;;;35.40;21.75
20889;BME280;10604;51.976;7.594;2023-06-14T12:27:52;100937.47;;;35.89;21.29
20889;BME280;10604;51.976;7.594;2023-06-14T12:30:17;100944.19;;;36.54;21.23
20889;BME280;10604;51.976;7.594;2023-06-14T12:32:43;100938.94;;;36.78;21.36
20889;BME280;10604;51.976;7.594;2023-06-14T12:35:09;100939.34;;;36.88;21.84
20889;BME280;10604;51.976;7.594;2023-06-14T12:37:34;100939.31;;;36.62;21.52
20889;BME280;10604;51.976;7.594;2023-06-14T12:39:59;100940.44;;;36.88;20.89
20889;BME280;10604;51.976;7.594;2023-06-14T12:42:25;100937.94;;;37.63;20.45
20889;BME280;10604;51.976;7.594;2023-06-14T12:44:50;100939.56;;;36.67;21.42
20889;BME280;10604;51.976;7.594;2023-06-14T12:47:15;100939.59;;;35.46;22.24
20889;BME280;10604;51.976;7.594;2023-06-14T12:49:40;100943.41;;;36.66;22.29
20889;BME280;10604;51.976;7.594;2023-06-14T12:52:06;100933.19;;;36.47;21.32
20889;BME280;10604;51.976;7.594;2023-06-14T12:54:32;100940.78;;;37.11;21.43
20889;BME280;10604;51.976;7.594;2023-06-14T12:56:57;100940.38;;;36.48;21.51
20889;BME280;10604;51.976;7.594;2023-06-14T12:59:22;100945.06;;;36.94;21.24
20889;BME280;10604;51.976;7.594;2023-06-14T13:01:47;100939.09;;;37.36;20.17